sensor_id;sensor_type;location;lat;lon;timestamp;P1;durP1;ratioP1;P2;durP2;ratioP2
1370;SDS011;14306;49.942;11.570;2023-05-31T00:01:38;3.63;;;2.70;;
1370;SDS011;14306;49.942;11.570;2023-05-31T00:04:07;3.33;;;1.83;;
1370;SDS011;14306;49.942;11.570;2023-05-31T00:06:36;9.03;;;2.60;;
1370;SDS011;14306;49.942;11.570;2023-05-31T00:09:04;7.40;;;2.60;;
1370;SDS011;14306;49.942;11.570;2023-05-31T00:11:33;9.27;;;2.80;;
1370;SDS011;14306;49.942;11.570;2023-05-31T00:14:02;11.40;;;3.07;;
1370;SDS011;14306;49.942;11.570;2023-05-31T00:16:31;3.70;;;2.60;;
1370;SDS011;14306;49.942;11.570;2023-05-31T00:19:04;9.77;;;2.83;;
1370;SDS011;14306;49.942;11.570;2023-05-31T00:21:33;6.10;;;2.50;;
1370;SDS011;14306;49.942;11.570;2023-05-31T00:24:02;6.90;;;2.33;;
1370;SDS011;14306;49.942;11.570;2023-05-31T00:26:30;8.33;;;3.07;;
1370;SDS011;14306;49.942;11.570;2023-05-31T00:28:59;5.37;;;2.90;;
1370;SDS011;14306;49.942;11.570;2023-05-31T00:31:28;4.10;;;2.40;;
1370;SDS011;14306;49.942;11.570;2023-05-31T00:33:56;9.07;;;2.83;;
1370;SDS011;14306;49.942;11.570;2023-05-31T00:36:26;9.50;;;3.80;;
1370;SDS011;14306;49.942;11.570;2023-05-31T00:38:55;4.60;;;2.20;;
1370;SDS011;14306;49.942;11.570;2023-05-31T00:41:24;11.27;;;3.73;;
1370;SDS011;14306;49.942;11.570;2023-05-31T00:43:54;5.03;;;2.73;;
1370;SDS011;14306;49.942;11.570;2023-05-31T00:46:24;11.50;;;2.70;;
1370;SDS011;14306;49.942;11.570;2023-05-31T00:48:54;6.33;;;2.53;;
1370;SDS011;14306;49.942;11.570;2023-05-31T00:51:24;4.57;;;2.80;;
1370;SDS011;14306;49.942;11.570;2023-05-31T00:53:56;10.17;;;3.50;;
1370;SDS011;14306;49.942;11.570;2023-05-31T00:56:25;6.90;;;3.67;;
1370;SDS011;14306;49.942;11.570;2023-05-31T00:58:54;9.10;;;3.40;;
1370;SDS011;14306;49.942;11.570;2023-05-31T01:01:25;4.50;;;2.50;;
1370;SDS011;14306;49.942;11.570;2023-05-31T01:04:00;5.60;;;2.50;;
1370;SDS011;14306;49.942;11.570;2023-05-31T01:06:30;8.40;;;2.70;;
1370;SDS011;14306;49.942;11.570;2023-05-31T01:09:03;9.03;;;3.00;;
1370;SDS011;14306;49.942;11.570;2023-05-31T01:11:37;10.80;;;2.87;;
1370;SDS011;14306;49.942;11.570;2023-05-31T01:14:27;9.83;;;3.07;;
1370;SDS011;14306;49.942;11.570;2023-05-31T01:17:10;4.50;;;2.13;;
1370;SDS011;14306;49.942;11.570;2023-05-31T01:19:51;9.00;;;3.00;;
1370;SDS011;14306;49.942;11.570;2023-05-31T01:25:22;7.63;;;3.20;;
1370;SDS011;14306;49.942;11.570;2023-05-31T01:27:57;3.20;;;2.37;;
1370;SDS011;14306;49.942;11.570;2023-05-31T01:30:27;8.33;;;3.23;;
1370;SDS011;14306;49.942;11.570;2023-05-31T01:32:58;7.93;;;2.63;;
1370;SDS011;14306;49.942;11.570;2023-05-31T01:35:27;3.77;;;2.80;;
1370;SDS011;14306;49.942;11.570;2023-05-31T01:37:56;8.10;;;3.07;;
1370;SDS011;14306;49.942;11.570;2023-05-31T01:40:24;4.90;;;2.53;;
1370;SDS011;14306;49.942;11.570;2023-05-31T01:42:53;8.87;;;3.10;;
1370;SDS011;14306;49.942;11.570;2023-05-31T01:45:23;6.30;;;2.40;;
1370;SDS011;14306;49.942;11.570;2023-05-31T01:47:57;5.70;;;3.27;;
1370;SDS011;14306;49.942;11.570;2023-05-31T01:50:28;6.60;;;3.00;;
1370;SDS011;14306;49.942;11.570;2023-05-31T01:52:57;3.83;;;2.77;;
1370;SDS011;14306;49.942;11.570;2023-05-31T01:55:26;6.27;;;2.67;;
1370;SDS011;14306;49.942;11.570;2023-05-31T01:57:55;5.33;;;2.67;;
1370;SDS011;14306;49.942;11.570;2023-05-31T02:00:27;7.00;;;2.47;;
1370;SDS011;14306;49.942;11.570;2023-05-31T02:02:56;3.57;;;2.67;;
1370;SDS011;14306;49.942;11.570;2023-05-31T02:05:25;7.33;;;3.60;;
1370;SDS011;14306;49.942;11.570;2023-05-31T02:07:56;6.77;;;2.97;;
1370;SDS011;14306;49.942;11.570;2023-05-31T02:10:25;5.47;;;2.73;;
1370;SDS011;14306;49.942;11.570;2023-05-31T02:12:53;4.40;;;3.30;;
1370;SDS011;14306;49.942;11.570;2023-05-31T02:15:21;7.27;;;3.33;;
1370;SDS011;14306;49.942;11.570;2023-05-31T02:17:51;4.40;;;2.80;;
1370;SDS011;14306;49.942;11.570;2023-05-31T02:20:21;4.57;;;2.93;;
1370;SDS011;14306;49.942;11.570;2023-05-31T02:22:49;6.70;;;2.90;;
1370;SDS011;14306;49.942;11.570;2023-05-31T02:25:18;5.87;;;3.10;;
1370;SDS011;14306;49.942;11.570;2023-05-31T02:27:46;6.17;;;3.30;;
1370;SDS011;14306;49.942;11.570;2023-05-31T02:30:15;7.73;;;3.20;;
1370;SDS011;14306;49.942;11.570;2023-05-31T02:32:44;8.23;;;3.47;;
1370;SDS011;14306;49.942;11.570;2023-05-31T02:35:14;6.70;;;3.50;;
1370;SDS011;14306;49.942;11.570;2023-05-31T02:37:42;5.43;;;2.90;;
1370;SDS011;14306;49.942;11.570;2023-05-31T02:40:13;6.67;;;2.90;;
1370;SDS011;14306;49.942;11.570;2023-05-31T02:42:42;8.10;;;3.17;;
1370;SDS011;14306;49.942;11.570;2023-05-31T02:45:11;8.03;;;2.60;;
1370;SDS011;14306;49.942;11.570;2023-05-31T02:47:40;5.23;;;3.47;;
1370;SDS011;14306;49.942;11.570;2023-05-31T02:50:09;6.77;;;3.23;;
1370;SDS011;14306;49.942;11.570;2023-05-31T02:52:39;4.70;;;3.40;;
1370;SDS011;14306;49.942;11.570;2023-05-31T02:55:08;5.27;;;3.43;;
1370;SDS011;14306;49.942;11.570;2023-05-31T02:57:36;5.70;;;3.70;;
1370;SDS011;14306;49.942;11.570;2023-05-31T03:00:06;5.57;;;3.70;;
1370;SDS011;14306;49.942;11.570;2023-05-31T03:02:39;5.80;;;3.10;;
1370;SDS011;14306;49.942;11.570;2023-05-31T03:05:08;4.90;;;2.87;;
1370;SDS011;14306;49.942;11.570;2023-05-31T03:07:37;4.37;;;3.00;;
1370;SDS011;14306;49.942;11.570;2023-05-31T03:10:08;5.53;;;2.90;;
1370;SDS011;14306;49.942;11.570;2023-05-31T03:12:37;7.23;;;3.60;;
1370;SDS011;14306;49.942;11.570;2023-05-31T03:15:06;3.90;;;3.00;;
1370;SDS011;14306;49.942;11.570;2023-05-31T03:17:36;6.00;;;2.73;;
1370;SDS011;14306;49.942;11.570;2023-05-31T03:20:06;6.30;;;2.90;;
1370;SDS011;14306;49.942;11.570;2023-05-31T03:22:36;3.73;;;2.83;;
1370;SDS011;14306;49.942;11.570;2023-05-31T03:25:07;7.03;;;3.67;;
1370;SDS011;14306;49.942;11.570;2023-05-31T03:27:36;7.93;;;4.20;;
1370;SDS011;14306;49.942;11.570;2023-05-31T03:30:05;4.97;;;2.97;;
1370;SDS011;14306;49.942;11.570;2023-05-31T03:32:35;14.63;;;3.47;;
1370;SDS011;14306;49.942;11.570;2023-05-31T03:35:04;4.83;;;2.93;;
1370;SDS011;14306;49.942;11.570;2023-05-31T03:37:34;6.67;;;2.60;;
1370;SDS011;14306;49.942;11.570;2023-05-31T03:40:02;7.77;;;3.00;;
1370;SDS011;14306;49.942;11.570;2023-05-31T03:42:33;10.23;;;3.00;;
1370;SDS011;14306;49.942;11.570;2023-05-31T03:45:02;6.33;;;3.30;;
1370;SDS011;14306;49.942;11.570;2023-05-31T03:47:31;12.03;;;3.30;;
1370;SDS011;14306;49.942;11.570;2023-05-31T03:50:00;9.90;;;3.40;;
1370;SDS011;14306;49.942;11.570;2023-05-31T03:52:29;6.63;;;3.50;;
1370;SDS011;14306;49.942;11.570;2023-05-31T03:54:58;8.27;;;3.07;;
1370;SDS011;14306;49.942;11.570;2023-05-31T03:57:27;5.00;;;2.67;;
1370;SDS011;14306;49.942;11.570;2023-05-31T03:59:57;5.10;;;2.50;;
1370;SDS011;14306;49.942;11.570;2023-05-31T04:02:27;6.13;;;2.90;;
1370;SDS011;14306;49.942;11.570;2023-05-31T04:04:56;8.50;;;3.20;;
1370;SDS011;14306;49.942;11.570;2023-05-31T04:07:24;4.50;;;2.13;;
1370;SDS011;14306;49.942;11.570;2023-05-31T04:09:54;5.30;;;2.73;;
1370;SDS011;14306;49.942;11.570;2023-05-31T04:12:22;6.37;;;2.97;;
1370;SDS011;14306;49.942;11.570;2023-05-31T04:14:50;10.83;;;3.30;;
1370;SDS011;14306;49.942;11.570;2023-05-31T04:17:21;8.07;;;3.57;;
1370;SDS011;14306;49.942;11.570;2023-05-31T04:19:49;6.07;;;3.10;;
1370;SDS011;14306;49.942;11.570;2023-05-31T04:22:19;7.30;;;2.73;;
1370;SDS011;14306;49.942;11.570;2023-05-31T04:24:49;3.80;;;2.37;;
1370;SDS011;14306;49.942;11.570;2023-05-31T04:27:18;6.63;;;3.40;;
1370;SDS011;14306;49.942;11.570;2023-05-31T04:29:46;5.40;;;2.80;;
1370;SDS011;14306;49.942;11.570;2023-05-31T04:32:17;8.37;;;3.23;;
1370;SDS011;14306;49.942;11.570;2023-05-31T04:34:50;6.43;;;2.87;;
1370;SDS011;14306;49.942;11.570;2023-05-31T04:37:24;11.27;;;3.23;;
1370;SDS011;14306;49.942;11.570;2023-05-31T04:39:55;6.63;;;3.00;;
1370;SDS011;14306;49.942;11.570;2023-05-31T04:42:24;4.23;;;2.90;;
1370;SDS011;14306;49.942;11.570;2023-05-31T04:44:53;7.47;;;2.63;;
1370;SDS011;14306;49.942;11.570;2023-05-31T04:47:25;8.63;;;3.67;;
1370;SDS011;14306;49.942;11.570;2023-05-31T04:49:56;8.53;;;3.23;;
1370;SDS011;14306;49.942;11.570;2023-05-31T04:52:26;9.73;;;3.53;;
1370;SDS011;14306;49.942;11.570;2023-05-31T04:54:56;5.30;;;2.80;;
1370;SDS011;14306;49.942;11.570;2023-05-31T04:57:25;4.60;;;3.10;;
1370;SDS011;14306;49.942;11.570;2023-05-31T04:59:58;7.63;;;3.20;;
1370;SDS011;14306;49.942;11.570;2023-05-31T05:02:26;8.17;;;2.80;;
1370;SDS011;14306;49.942;11.570;2023-05-31T05:04:57;3.50;;;2.57;;
1370;SDS011;14306;49.942;11.570;2023-05-31T05:07:25;5.60;;;2.50;;
1370;SDS011;14306;49.942;11.570;2023-05-31T05:09:54;6.37;;;3.30;;
1370;SDS011;14306;49.942;11.570;2023-05-31T05:12:23;4.37;;;3.13;;
1370;SDS011;14306;49.942;11.570;2023-05-31T05:14:51;8.57;;;2.53;;
1370;SDS011;14306;49.942;11.570;2023-05-31T05:17:20;6.67;;;3.00;;
1370;SDS011;14306;49.942;11.570;2023-05-31T05:19:49;12.70;;;3.10;;
1370;SDS011;14306;49.942;11.570;2023-05-31T05:22:19;4.70;;;2.77;;
1370;SDS011;14306;49.942;11.570;2023-05-31T05:24:47;8.67;;;3.03;;
1370;SDS011;14306;49.942;11.570;2023-05-31T05:27:16;11.07;;;3.60;;
1370;SDS011;14306;49.942;11.570;2023-05-31T05:29:45;4.43;;;2.60;;
1370;SDS011;14306;49.942;11.570;2023-05-31T05:32:13;8.33;;;2.90;;
1370;SDS011;14306;49.942;11.570;2023-05-31T05:34:42;7.87;;;2.73;;
1370;SDS011;14306;49.942;11.570;2023-05-31T05:37:11;7.70;;;2.57;;
1370;SDS011;14306;49.942;11.570;2023-05-31T05:39:41;3.90;;;2.77;;
1370;SDS011;14306;49.942;11.570;2023-05-31T05:42:11;4.40;;;2.83;;
1370;SDS011;14306;49.942;11.570;2023-05-31T05:44:39;5.07;;;2.50;;
1370;SDS011;14306;49.942;11.570;2023-05-31T05:47:08;3.00;;;1.93;;
1370;SDS011;14306;49.942;11.570;2023-05-31T05:49:37;5.13;;;2.10;;
1370;SDS011;14306;49.942;11.570;2023-05-31T05:52:06;4.40;;;2.03;;
1370;SDS011;14306;49.942;11.570;2023-05-31T05:54:35;4.50;;;2.20;;
1370;SDS011;14306;49.942;11.570;2023-05-31T05:57:06;3.20;;;2.30;;
1370;SDS011;14306;49.942;11.570;2023-05-31T05:59:35;4.97;;;2.23;;
1370;SDS011;14306;49.942;11.570;2023-05-31T06:02:08;5.00;;;2.20;;
1370;SDS011;14306;49.942;11.570;2023-05-31T06:04:37;8.67;;;2.67;;
1370;SDS011;14306;49.942;11.570;2023-05-31T06:07:05;4.13;;;2.30;;
1370;SDS011;14306;49.942;11.570;2023-05-31T06:09:34;7.20;;;2.53;;
1370;SDS011;14306;49.942;11.570;2023-05-31T06:12:03;5.27;;;2.33;;
1370;SDS011;14306;49.942;11.570;2023-05-31T06:14:35;6.47;;;2.20;;
1370;SDS011;14306;49.942;11.570;2023-05-31T06:17:03;3.23;;;1.97;;
1370;SDS011;14306;49.942;11.570;2023-05-31T06:19:33;5.50;;;1.97;;
1370;SDS011;14306;49.942;11.570;2023-05-31T06:22:02;4.27;;;2.27;;
1370;SDS011;14306;49.942;11.570;2023-05-31T06:24:31;2.50;;;1.90;;
1370;SDS011;14306;49.942;11.570;2023-05-31T06:26:59;5.80;;;2.40;;
1370;SDS011;14306;49.942;11.570;2023-05-31T06:29:31;6.60;;;2.60;;
1370;SDS011;14306;49.942;11.570;2023-05-31T06:32:00;8.10;;;1.93;;
1370;SDS011;14306;49.942;11.570;2023-05-31T06:34:28;6.33;;;1.80;;
1370;SDS011;14306;49.942;11.570;2023-05-31T06:36:58;8.70;;;2.20;;
1370;SDS011;14306;49.942;11.570;2023-05-31T06:39:28;12.27;;;1.80;;
1370;SDS011;14306;49.942;11.570;2023-05-31T06:41:56;4.60;;;1.73;;
1370;SDS011;14306;49.942;11.570;2023-05-31T06:44:26;2.17;;;1.70;;
1370;SDS011;14306;49.942;11.570;2023-05-31T06:46:56;4.20;;;1.83;;
1370;SDS011;14306;49.942;11.570;2023-05-31T06:49:24;7.30;;;1.70;;
1370;SDS011;14306;49.942;11.570;2023-05-31T06:51:54;3.80;;;2.03;;
1370;SDS011;14306;49.942;11.570;2023-05-31T06:54:24;4.27;;;2.37;;
1370;SDS011;14306;49.942;11.570;2023-05-31T06:56:52;3.73;;;2.00;;
1370;SDS011;14306;49.942;11.570;2023-05-31T06:59:21;5.90;;;1.87;;
1370;SDS011;14306;49.942;11.570;2023-05-31T07:01:50;8.27;;;1.90;;
1370;SDS011;14306;49.942;11.570;2023-05-31T07:04:22;3.03;;;2.03;;
1370;SDS011;14306;49.942;11.570;2023-05-31T07:06:51;3.33;;;1.70;;
1370;SDS011;14306;49.942;11.570;2023-05-31T07:09:21;8.10;;;2.20;;
1370;SDS011;14306;49.942;11.570;2023-05-31T07:11:49;3.50;;;1.50;;
1370;SDS011;14306;49.942;11.570;2023-05-31T07:14:18;3.60;;;2.10;;
1370;SDS011;14306;49.942;11.570;2023-05-31T07:16:46;4.40;;;1.77;;
1370;SDS011;14306;49.942;11.570;2023-05-31T07:19:16;5.20;;;1.63;;
1370;SDS011;14306;49.942;11.570;2023-05-31T07:21:50;5.10;;;2.53;;
1370;SDS011;14306;49.942;11.570;2023-05-31T07:24:19;4.63;;;1.80;;
1370;SDS011;14306;49.942;11.570;2023-05-31T07:26:47;3.37;;;1.90;;
1370;SDS011;14306;49.942;11.570;2023-05-31T07:29:16;6.50;;;2.10;;
1370;SDS011;14306;49.942;11.570;2023-05-31T07:31:45;4.77;;;1.77;;
1370;SDS011;14306;49.942;11.570;2023-05-31T07:34:13;4.23;;;1.70;;
1370;SDS011;14306;49.942;11.570;2023-05-31T07:36:43;6.00;;;1.90;;
1370;SDS011;14306;49.942;11.570;2023-05-31T07:39:13;5.17;;;1.87;;
1370;SDS011;14306;49.942;11.570;2023-05-31T07:41:43;6.53;;;2.47;;
1370;SDS011;14306;49.942;11.570;2023-05-31T07:44:14;6.10;;;2.33;;
1370;SDS011;14306;49.942;11.570;2023-05-31T07:46:43;6.73;;;1.90;;
1370;SDS011;14306;49.942;11.570;2023-05-31T07:49:20;4.87;;;2.07;;
1370;SDS011;14306;49.942;11.570;2023-05-31T07:51:51;5.63;;;2.20;;
1370;SDS011;14306;49.942;11.570;2023-05-31T07:54:22;3.80;;;2.10;;
1370;SDS011;14306;49.942;11.570;2023-05-31T07:56:52;5.17;;;2.03;;
1370;SDS011;14306;49.942;11.570;2023-05-31T07:59:22;2.90;;;1.87;;
1370;SDS011;14306;49.942;11.570;2023-05-31T08:01:51;5.77;;;2.50;;
1370;SDS011;14306;49.942;11.570;2023-05-31T08:04:20;6.93;;;2.10;;
1370;SDS011;14306;49.942;11.570;2023-05-31T08:06:49;10.53;;;2.53;;
1370;SDS011;14306;49.942;11.570;2023-05-31T08:09:18;5.03;;;1.70;;
1370;SDS011;14306;49.942;11.570;2023-05-31T08:11:51;4.07;;;1.87;;
1370;SDS011;14306;49.942;11.570;2023-05-31T08:14:20;5.83;;;2.00;;
1370;SDS011;14306;49.942;11.570;2023-05-31T08:16:52;7.87;;;2.00;;
1370;SDS011;14306;49.942;11.570;2023-05-31T08:19:21;6.13;;;1.90;;
1370;SDS011;14306;49.942;11.570;2023-05-31T08:21:50;5.17;;;1.83;;
1370;SDS011;14306;49.942;11.570;2023-05-31T08:24:23;4.17;;;1.60;;
1370;SDS011;14306;49.942;11.570;2023-05-31T08:26:54;3.23;;;2.10;;
1370;SDS011;14306;49.942;11.570;2023-05-31T08:29:25;6.77;;;2.03;;
1370;SDS011;14306;49.942;11.570;2023-05-31T08:31:54;14.83;;;2.10;;
1370;SDS011;14306;49.942;11.570;2023-05-31T08:34:28;1.73;;;1.40;;
1370;SDS011;14306;49.942;11.570;2023-05-31T08:36:57;5.80;;;1.97;;
1370;SDS011;14306;49.942;11.570;2023-05-31T08:39:27;3.33;;;1.83;;
1370;SDS011;14306;49.942;11.570;2023-05-31T08:42:00;3.37;;;1.80;;
1370;SDS011;14306;49.942;11.570;2023-05-31T08:44:32;6.90;;;2.13;;
1370;SDS011;14306;49.942;11.570;2023-05-31T08:47:03;4.17;;;2.17;;
1370;SDS011;14306;49.942;11.570;2023-05-31T08:49:40;4.50;;;2.07;;
1370;SDS011;14306;49.942;11.570;2023-05-31T08:52:12;6.40;;;1.93;;
1370;SDS011;14306;49.942;11.570;2023-05-31T08:54:43;6.53;;;2.10;;
1370;SDS011;14306;49.942;11.570;2023-05-31T08:57:15;5.00;;;2.00;;
1370;SDS011;14306;49.942;11.570;2023-05-31T08:59:45;3.57;;;1.50;;
1370;SDS011;14306;49.942;11.570;2023-05-31T09:02:15;4.67;;;2.20;;
1370;SDS011;14306;49.942;11.570;2023-05-31T09:04:45;6.03;;;1.83;;
1370;SDS011;14306;49.942;11.570;2023-05-31T09:07:14;5.00;;;1.90;;
1370;SDS011;14306;49.942;11.570;2023-05-31T09:09:43;3.87;;;1.87;;
1370;SDS011;14306;49.942;11.570;2023-05-31T09:12:12;4.93;;;2.23;;
1370;SDS011;14306;49.942;11.570;2023-05-31T09:14:42;3.70;;;1.50;;
1370;SDS011;14306;49.942;11.570;2023-05-31T09:17:12;5.33;;;1.33;;
1370;SDS011;14306;49.942;11.570;2023-05-31T09:19:41;7.97;;;2.17;;
1370;SDS011;14306;49.942;11.570;2023-05-31T09:22:17;6.07;;;2.07;;
1370;SDS011;14306;49.942;11.570;2023-05-31T09:24:49;5.37;;;1.70;;
1370;SDS011;14306;49.942;11.570;2023-05-31T09:27:18;5.47;;;1.90;;
1370;SDS011;14306;49.942;11.570;2023-05-31T09:29:52;5.93;;;1.83;;
1370;SDS011;14306;49.942;11.570;2023-05-31T09:32:20;8.50;;;1.80;;
1370;SDS011;14306;49.942;11.570;2023-05-31T09:34:50;6.03;;;1.93;;
1370;SDS011;14306;49.942;11.570;2023-05-31T09:37:22;7.27;;;2.00;;
1370;SDS011;14306;49.942;11.570;2023-05-31T09:39:55;4.00;;;1.97;;
1370;SDS011;14306;49.942;11.570;2023-05-31T09:42:24;3.20;;;1.77;;
1370;SDS011;14306;49.942;11.570;2023-05-31T09:44:55;3.83;;;2.33;;
1370;SDS011;14306;49.942;11.570;2023-05-31T09:47:26;3.20;;;1.90;;
1370;SDS011;14306;49.942;11.570;2023-05-31T09:49:55;3.50;;;2.07;;
1370;SDS011;14306;49.942;11.570;2023-05-31T09:52:25;3.33;;;1.50;;
1370;SDS011;14306;49.942;11.570;2023-05-31T09:55:00;5.37;;;1.93;;
1370;SDS011;14306;49.942;11.570;2023-05-31T09:57:33;5.53;;;1.73;;
1370;SDS011;14306;49.942;11.570;2023-05-31T10:00:09;3.00;;;2.00;;
1370;SDS011;14306;49.942;11.570;2023-05-31T10:02:43;5.73;;;2.13;;
1370;SDS011;14306;49.942;11.570;2023-05-31T10:05:14;3.40;;;2.33;;
1370;SDS011;14306;49.942;11.570;2023-05-31T10:07:44;8.73;;;2.30;;
1370;SDS011;14306;49.942;11.570;2023-05-31T10:10:14;6.00;;;2.20;;
1370;SDS011;14306;49.942;11.570;2023-05-31T10:12:49;7.00;;;2.17;;
1370;SDS011;14306;49.942;11.570;2023-05-31T10:15:21;2.73;;;1.70;;
1370;SDS011;14306;49.942;11.570;2023-05-31T10:17:54;6.03;;;2.17;;
1370;SDS011;14306;49.942;11.570;2023-05-31T10:20:29;4.47;;;1.70;;
1370;SDS011;14306;49.942;11.570;2023-05-31T10:23:01;5.23;;;2.20;;
1370;SDS011;14306;49.942;11.570;2023-05-31T10:25:34;3.27;;;2.40;;
1370;SDS011;14306;49.942;11.570;2023-05-31T10:28:13;5.47;;;2.50;;
1370;SDS011;14306;49.942;11.570;2023-05-31T10:30:47;4.30;;;2.13;;
1370;SDS011;14306;49.942;11.570;2023-05-31T10:33:19;4.53;;;2.13;;
1370;SDS011;14306;49.942;11.570;2023-05-31T10:35:49;6.83;;;2.17;;
1370;SDS011;14306;49.942;11.570;2023-05-31T10:38:21;2.83;;;2.10;;
1370;SDS011;14306;49.942;11.570;2023-05-31T10:41:06;4.20;;;1.80;;
1370;SDS011;14306;49.942;11.570;2023-05-31T10:43:54;3.93;;;2.53;;
1370;SDS011;14306;49.942;11.570;2023-05-31T10:46:28;2.23;;;1.80;;
1370;SDS011;14306;49.942;11.570;2023-05-31T10:49:01;3.37;;;1.90;;
1370;SDS011;14306;49.942;11.570;2023-05-31T10:51:40;4.20;;;1.70;;
1370;SDS011;14306;49.942;11.570;2023-05-31T10:54:09;4.20;;;1.93;;
1370;SDS011;14306;49.942;11.570;2023-05-31T10:56:53;3.73;;;1.80;;
1370;SDS011;14306;49.942;11.570;2023-05-31T10:59:23;3.67;;;1.60;;
1370;SDS011;14306;49.942;11.570;2023-05-31T11:01:54;3.30;;;1.70;;
1370;SDS011;14306;49.942;11.570;2023-05-31T11:04:26;7.50;;;2.53;;
1370;SDS011;14306;49.942;11.570;2023-05-31T11:07:02;3.77;;;1.67;;
1370;SDS011;14306;49.942;11.570;2023-05-31T11:09:41;4.07;;;1.77;;
1370;SDS011;14306;49.942;11.570;2023-05-31T11:12:33;4.80;;;2.23;;
1370;SDS011;14306;49.942;11.570;2023-05-31T11:15:03;3.73;;;1.50;;
1370;SDS011;14306;49.942;11.570;2023-05-31T11:17:49;10.50;;;2.23;;
1370;SDS011;14306;49.942;11.570;2023-05-31T11:20:19;4.83;;;2.20;;
1370;SDS011;14306;49.942;11.570;2023-05-31T11:26:14;4.63;;;2.20;;
1370;SDS011;14306;49.942;11.570;2023-05-31T11:28:53;6.57;;;1.93;;
1370;SDS011;14306;49.942;11.570;2023-05-31T11:34:27;5.80;;;1.67;;
1370;SDS011;14306;49.942;11.570;2023-05-31T11:37:01;8.03;;;2.20;;
1370;SDS011;14306;49.942;11.570;2023-05-31T11:39:32;2.90;;;1.83;;
1370;SDS011;14306;49.942;11.570;2023-05-31T11:42:02;3.70;;;1.90;;
1370;SDS011;14306;49.942;11.570;2023-05-31T11:44:31;13.90;;;3.50;;
1370;SDS011;14306;49.942;11.570;2023-05-31T11:47:02;2.80;;;1.73;;
1370;SDS011;14306;49.942;11.570;2023-05-31T11:49:34;4.60;;;1.90;;
1370;SDS011;14306;49.942;11.570;2023-05-31T11:52:04;8.20;;;2.27;;
1370;SDS011;14306;49.942;11.570;2023-05-31T11:54:32;4.13;;;2.10;;
1370;SDS011;14306;49.942;11.570;2023-05-31T11:57:06;5.60;;;1.90;;
1370;SDS011;14306;49.942;11.570;2023-05-31T11:59:37;4.47;;;2.10;;
1370;SDS011;14306;49.942;11.570;2023-05-31T12:02:07;4.10;;;2.10;;
1370;SDS011;14306;49.942;11.570;2023-05-31T12:04:41;4.23;;;2.30;;
1370;SDS011;14306;49.942;11.570;2023-05-31T12:07:11;3.83;;;2.00;;
1370;SDS011;14306;49.942;11.570;2023-05-31T12:09:44;3.67;;;2.00;;
1370;SDS011;14306;49.942;11.570;2023-05-31T12:12:13;4.60;;;2.70;;
1370;SDS011;14306;49.942;11.570;2023-05-31T12:14:48;4.13;;;1.90;;
1370;SDS011;14306;49.942;11.570;2023-05-31T12:17:18;3.57;;;2.03;;
1370;SDS011;14306;49.942;11.570;2023-05-31T12:19:48;8.33;;;1.77;;
1370;SDS011;14306;49.942;11.570;2023-05-31T12:22:17;6.87;;;2.40;;
1370;SDS011;14306;49.942;11.570;2023-05-31T12:24:49;4.00;;;2.13;;
1370;SDS011;14306;49.942;11.570;2023-05-31T12:27:19;6.80;;;2.00;;
1370;SDS011;14306;49.942;11.570;2023-05-31T12:30:15;3.70;;;2.27;;
1370;SDS011;14306;49.942;11.570;2023-05-31T12:32:45;2.93;;;1.60;;
1370;SDS011;14306;49.942;11.570;2023-05-31T12:35:15;4.10;;;1.70;;
1370;SDS011;14306;49.942;11.570;2023-05-31T12:37:44;2.07;;;1.77;;
1370;SDS011;14306;49.942;11.570;2023-05-31T12:40:13;2.73;;;1.87;;
1370;SDS011;14306;49.942;11.570;2023-05-31T12:42:43;4.17;;;2.30;;
1370;SDS011;14306;49.942;11.570;2023-05-31T12:45:11;3.03;;;2.23;;
1370;SDS011;14306;49.942;11.570;2023-05-31T12:47:40;3.70;;;1.57;;
1370;SDS011;14306;49.942;11.570;2023-05-31T12:50:10;3.67;;;2.00;;
1370;SDS011;14306;49.942;11.570;2023-05-31T12:52:40;5.13;;;1.80;;
1370;SDS011;14306;49.942;11.570;2023-05-31T12:55:10;6.53;;;2.37;;
1370;SDS011;14306;49.942;11.570;2023-05-31T12:57:38;7.10;;;1.97;;
1370;SDS011;14306;49.942;11.570;2023-05-31T13:00:10;9.47;;;2.40;;
1370;SDS011;14306;49.942;11.570;2023-05-31T13:02:42;2.93;;;1.57;;
1370;SDS011;14306;49.942;11.570;2023-05-31T13:05:11;6.20;;;2.30;;
1370;SDS011;14306;49.942;11.570;2023-05-31T13:07:42;5.77;;;2.20;;
1370;SDS011;14306;49.942;11.570;2023-05-31T13:10:12;4.17;;;2.47;;
1370;SDS011;14306;49.942;11.570;2023-05-31T13:12:45;5.27;;;2.07;;
1370;SDS011;14306;49.942;11.570;2023-05-31T13:15:16;4.20;;;2.10;;
1370;SDS011;14306;49.942;11.570;2023-05-31T13:17:44;4.10;;;1.63;;
1370;SDS011;14306;49.942;11.570;2023-05-31T13:20:13;3.50;;;2.40;;
1370;SDS011;14306;49.942;11.570;2023-05-31T13:22:43;9.20;;;2.37;;
1370;SDS011;14306;49.942;11.570;2023-05-31T13:25:12;5.23;;;1.80;;
1370;SDS011;14306;49.942;11.570;2023-05-31T13:27:40;4.57;;;2.00;;
1370;SDS011;14306;49.942;11.570;2023-05-31T13:30:09;4.23;;;1.90;;
1370;SDS011;14306;49.942;11.570;2023-05-31T13:32:38;5.00;;;1.80;;
1370;SDS011;14306;49.942;11.570;2023-05-31T13:35:07;6.17;;;2.80;;
1370;SDS011;14306;49.942;11.570;2023-05-31T13:37:36;4.67;;;1.87;;
1370;SDS011;14306;49.942;11.570;2023-05-31T13:40:07;4.60;;;2.10;;
1370;SDS011;14306;49.942;11.570;2023-05-31T13:42:37;5.27;;;1.77;;
1370;SDS011;14306;49.942;11.570;2023-05-31T13:45:06;3.57;;;1.80;;
1370;SDS011;14306;49.942;11.570;2023-05-31T13:47:37;5.23;;;1.70;;
1370;SDS011;14306;49.942;11.570;2023-05-31T13:50:06;6.57;;;2.00;;
1370;SDS011;14306;49.942;11.570;2023-05-31T13:52:34;2.30;;;1.53;;
1370;SDS011;14306;49.942;11.570;2023-05-31T13:55:04;1.90;;;1.40;;
1370;SDS011;14306;49.942;11.570;2023-05-31T13:57:34;5.30;;;1.57;;
1370;SDS011;14306;49.942;11.570;2023-05-31T14:00:03;8.90;;;2.17;;
1370;SDS011;14306;49.942;11.570;2023-05-31T14:02:32;1.90;;;1.40;;
1370;SDS011;14306;49.942;11.570;2023-05-31T14:05:01;4.50;;;1.60;;
1370;SDS011;14306;49.942;11.570;2023-05-31T14:07:30;3.30;;;1.53;;
1370;SDS011;14306;49.942;11.570;2023-05-31T14:09:59;4.40;;;1.70;;
1370;SDS011;14306;49.942;11.570;2023-05-31T14:12:28;3.60;;;2.07;;
1370;SDS011;14306;49.942;11.570;2023-05-31T14:14:58;4.30;;;1.50;;
1370;SDS011;14306;49.942;11.570;2023-05-31T14:17:27;5.03;;;1.50;;
1370;SDS011;14306;49.942;11.570;2023-05-31T14:19:55;5.37;;;1.80;;
1370;SDS011;14306;49.942;11.570;2023-05-31T14:22:24;2.47;;;1.40;;
1370;SDS011;14306;49.942;11.570;2023-05-31T14:24:52;2.93;;;1.63;;
1370;SDS011;14306;49.942;11.570;2023-05-31T14:27:21;5.30;;;1.33;;
1370;SDS011;14306;49.942;11.570;2023-05-31T14:29:49;4.47;;;1.20;;
1370;SDS011;14306;49.942;11.570;2023-05-31T14:32:19;2.60;;;1.17;;
1370;SDS011;14306;49.942;11.570;2023-05-31T14:34:48;3.03;;;1.50;;
1370;SDS011;14306;49.942;11.570;2023-05-31T14:37:17;3.93;;;1.37;;
1370;SDS011;14306;49.942;11.570;2023-05-31T14:39:52;1.77;;;1.40;;
1370;SDS011;14306;49.942;11.570;2023-05-31T14:42:20;4.17;;;1.23;;
1370;SDS011;14306;49.942;11.570;2023-05-31T14:44:50;2.50;;;1.60;;
1370;SDS011;14306;49.942;11.570;2023-05-31T14:47:19;4.17;;;1.30;;
1370;SDS011;14306;49.942;11.570;2023-05-31T14:49:47;2.43;;;1.63;;
1370;SDS011;14306;49.942;11.570;2023-05-31T14:52:17;5.13;;;1.33;;
1370;SDS011;14306;49.942;11.570;2023-05-31T14:54:46;3.30;;;1.33;;
1370;SDS011;14306;49.942;11.570;2023-05-31T14:57:14;3.27;;;1.47;;
1370;SDS011;14306;49.942;11.570;2023-05-31T14:59:43;4.80;;;1.30;;
1370;SDS011;14306;49.942;11.570;2023-05-31T15:02:12;5.87;;;1.53;;
1370;SDS011;14306;49.942;11.570;2023-05-31T15:04:41;1.20;;;1.10;;
1370;SDS011;14306;49.942;11.570;2023-05-31T15:07:10;6.33;;;1.37;;
1370;SDS011;14306;49.942;11.570;2023-05-31T15:09:40;3.07;;;1.37;;
1370;SDS011;14306;49.942;11.570;2023-05-31T15:12:08;2.77;;;1.40;;
1370;SDS011;14306;49.942;11.570;2023-05-31T15:14:37;4.13;;;1.70;;
1370;SDS011;14306;49.942;11.570;2023-05-31T15:17:06;1.67;;;1.20;;